sensor_id;sensor_type;location;lat;lon;timestamp;P1;durP1;ratioP1;P2;durP2;ratioP2
26989;SDS011;14537;47.788;11.858;2024-01-30T00:01:15;3.22;;;1.42;;
26989;SDS011;14537;47.788;11.858;2024-01-30T00:03:41;3.85;;;1.73;;
26989;SDS011;14537;47.788;11.858;2024-01-30T00:06:06;3.80;;;2.30;;
26989;SDS011;14537;47.788;11.858;2024-01-30T00:08:35;3.72;;;2.05;;
26989;SDS011;14537;47.788;11.858;2024-01-30T00:11:01;6.60;;;2.35;;
26989;SDS011;14537;47.788;11.858;2024-01-30T00:13:27;4.22;;;2.17;;
26989;SDS011;14537;47.788;11.858;2024-01-30T00:15:52;5.57;;;1.90;;
26989;SDS011;14537;47.788;11.858;2024-01-30T00:18:18;3.28;;;1.63;;
26989;SDS011;14537;47.788;11.858;2024-01-30T00:20:44;2.20;;;1.55;;
26989;SDS011;14537;47.788;11.858;2024-01-30T00:23:10;3.03;;;2.10;;
26989;SDS011;14537;47.788;11.858;2024-01-30T00:25:35;3.83;;;1.88;;
26989;SDS011;14537;47.788;11.858;2024-01-30T00:28:01;8.35;;;2.15;;
26989;SDS011;14537;47.788;11.858;2024-01-30T00:30:27;3.80;;;1.85;;
26989;SDS011;14537;47.788;11.858;2024-01-30T00:32:53;5.85;;;2.00;;
26989;SDS011;14537;47.788;11.858;2024-01-30T00:35:19;3.28;;;1.60;;
26989;SDS011;14537;47.788;11.858;2024-01-30T00:37:47;3.42;;;1.70;;
26989;SDS011;14537;47.788;11.858;2024-01-30T00:40:12;3.95;;;1.70;;
26989;SDS011;14537;47.788;11.858;2024-01-30T00:42:41;2.40;;;1.30;;
26989;SDS011;14537;47.788;11.858;2024-01-30T00:45:11;4.53;;;1.40;;
26989;SDS011;14537;47.788;11.858;2024-01-30T00:47:40;3.05;;;1.17;;
26989;SDS011;14537;47.788;11.858;2024-01-30T00:50:06;2.00;;;0.98;;
26989;SDS011;14537;47.788;11.858;2024-01-30T00:52:32;3.80;;;1.27;;
26989;SDS011;14537;47.788;11.858;2024-01-30T00:54:58;2.03;;;1.35;;
26989;SDS011;14537;47.788;11.858;2024-01-30T00:57:24;2.28;;;1.25;;
26989;SDS011;14537;47.788;11.858;2024-01-30T00:59:50;3.33;;;1.42;;
26989;SDS011;14537;47.788;11.858;2024-01-30T01:02:15;10.05;;;1.65;;
26989;SDS011;14537;47.788;11.858;2024-01-30T01:04:42;2.05;;;1.00;;
26989;SDS011;14537;47.788;11.858;2024-01-30T01:07:09;4.63;;;1.35;;
26989;SDS011;14537;47.788;11.858;2024-01-30T01:09:35;5.18;;;1.23;;
26989;SDS011;14537;47.788;11.858;2024-01-30T01:12:01;3.22;;;1.10;;
26989;SDS011;14537;47.788;11.858;2024-01-30T01:14:26;3.28;;;1.27;;
26989;SDS011;14537;47.788;11.858;2024-01-30T01:16:52;1.42;;;1.00;;
26989;SDS011;14537;47.788;11.858;2024-01-30T01:19:18;3.47;;;1.38;;
26989;SDS011;14537;47.788;11.858;2024-01-30T01:21:43;1.42;;;1.02;;
26989;SDS011;14537;47.788;11.858;2024-01-30T01:24:09;2.85;;;1.50;;
26989;SDS011;14537;47.788;11.858;2024-01-30T01:26:34;3.58;;;1.48;;
26989;SDS011;14537;47.788;11.858;2024-01-30T01:29:00;3.78;;;1.52;;
26989;SDS011;14537;47.788;11.858;2024-01-30T01:31:25;2.45;;;1.35;;
26989;SDS011;14537;47.788;11.858;2024-01-30T01:33:54;3.17;;;1.17;;
26989;SDS011;14537;47.788;11.858;2024-01-30T01:36:23;3.30;;;1.33;;
26989;SDS011;14537;47.788;11.858;2024-01-30T01:38:48;4.03;;;1.35;;
26989;SDS011;14537;47.788;11.858;2024-01-30T01:41:14;2.80;;;1.52;;
26989;SDS011;14537;47.788;11.858;2024-01-30T01:43:39;2.22;;;1.17;;
26989;SDS011;14537;47.788;11.858;2024-01-30T01:46:06;4.13;;;1.30;;
26989;SDS011;14537;47.788;11.858;2024-01-30T01:48:33;2.78;;;1.55;;
26989;SDS011;14537;47.788;11.858;2024-01-30T01:50:59;1.15;;;0.90;;
26989;SDS011;14537;47.788;11.858;2024-01-30T01:53:24;3.05;;;0.88;;
26989;SDS011;14537;47.788;11.858;2024-01-30T01:55:51;1.38;;;0.98;;
26989;SDS011;14537;47.788;11.858;2024-01-30T01:58:18;2.30;;;1.13;;
26989;SDS011;14537;47.788;11.858;2024-01-30T02:00:45;2.03;;;0.88;;
26989;SDS011;14537;47.788;11.858;2024-01-30T02:03:11;1.05;;;0.80;;
26989;SDS011;14537;47.788;11.858;2024-01-30T02:05:39;3.30;;;1.10;;
26989;SDS011;14537;47.788;11.858;2024-01-30T02:08:06;2.50;;;1.13;;
26989;SDS011;14537;47.788;11.858;2024-01-30T02:10:33;1.25;;;0.80;;
26989;SDS011;14537;47.788;11.858;2024-01-30T02:12:59;2.67;;;1.08;;
26989;SDS011;14537;47.788;11.858;2024-01-30T02:15:25;2.15;;;1.13;;
26989;SDS011;14537;47.788;11.858;2024-01-30T02:17:50;1.40;;;0.90;;
26989;SDS011;14537;47.788;11.858;2024-01-30T02:20:16;1.65;;;0.75;;
26989;SDS011;14537;47.788;11.858;2024-01-30T02:22:42;1.77;;;1.02;;
26989;SDS011;14537;47.788;11.858;2024-01-30T02:25:08;1.73;;;1.02;;
26989;SDS011;14537;47.788;11.858;2024-01-30T02:27:34;1.05;;;0.68;;
26989;SDS011;14537;47.788;11.858;2024-01-30T02:29:59;2.40;;;1.13;;
26989;SDS011;14537;47.788;11.858;2024-01-30T02:32:25;2.88;;;1.30;;
26989;SDS011;14537;47.788;11.858;2024-01-30T02:34:51;2.25;;;1.30;;
26989;SDS011;14537;47.788;11.858;2024-01-30T02:37:16;1.52;;;0.80;;
26989;SDS011;14537;47.788;11.858;2024-01-30T02:39:42;5.07;;;1.15;;
26989;SDS011;14537;47.788;11.858;2024-01-30T02:42:08;1.23;;;0.90;;
26989;SDS011;14537;47.788;11.858;2024-01-30T02:44:33;3.80;;;1.30;;
26989;SDS011;14537;47.788;11.858;2024-01-30T02:46:59;1.42;;;1.00;;
26989;SDS011;14537;47.788;11.858;2024-01-30T02:49:24;2.65;;;0.98;;
26989;SDS011;14537;47.788;11.858;2024-01-30T02:51:51;1.60;;;1.10;;
26989;SDS011;14537;47.788;11.858;2024-01-30T02:54:17;1.95;;;1.10;;
26989;SDS011;14537;47.788;11.858;2024-01-30T02:56:43;1.80;;;0.82;;
26989;SDS011;14537;47.788;11.858;2024-01-30T02:59:08;3.30;;;1.15;;
26989;SDS011;14537;47.788;11.858;2024-01-30T03:01:41;1.13;;;0.77;;
26989;SDS011;14537;47.788;11.858;2024-01-30T03:04:11;1.80;;;0.80;;
26989;SDS011;14537;47.788;11.858;2024-01-30T03:06:37;1.77;;;1.00;;
26989;SDS011;14537;47.788;11.858;2024-01-30T03:09:02;1.02;;;0.70;;
26989;SDS011;14537;47.788;11.858;2024-01-30T03:11:29;2.72;;;0.68;;
26989;SDS011;14537;47.788;11.858;2024-01-30T03:13:55;1.92;;;0.70;;
26989;SDS011;14537;47.788;11.858;2024-01-30T03:16:21;1.48;;;0.70;;
26989;SDS011;14537;47.788;11.858;2024-01-30T03:18:46;1.65;;;0.60;;
26989;SDS011;14537;47.788;11.858;2024-01-30T03:21:13;1.27;;;0.70;;
26989;SDS011;14537;47.788;11.858;2024-01-30T03:23:39;1.38;;;0.77;;
26989;SDS011;14537;47.788;11.858;2024-01-30T03:26:05;1.95;;;1.05;;
26989;SDS011;14537;47.788;11.858;2024-01-30T03:28:31;1.73;;;0.93;;
26989;SDS011;14537;47.788;11.858;2024-01-30T03:30:57;2.63;;;1.42;;
26989;SDS011;14537;47.788;11.858;2024-01-30T03:33:22;3.10;;;0.90;;
26989;SDS011;14537;47.788;11.858;2024-01-30T03:35:48;2.40;;;0.93;;
26989;SDS011;14537;47.788;11.858;2024-01-30T03:38:13;1.00;;;0.70;;
26989;SDS011;14537;47.788;11.858;2024-01-30T03:40:39;3.60;;;1.20;;
26989;SDS011;14537;47.788;11.858;2024-01-30T03:43:05;1.75;;;0.93;;
26989;SDS011;14537;47.788;11.858;2024-01-30T03:45:30;1.50;;;0.88;;
26989;SDS011;14537;47.788;11.858;2024-01-30T03:47:56;1.30;;;0.80;;
26989;SDS011;14537;47.788;11.858;2024-01-30T03:50:22;1.42;;;0.80;;
26989;SDS011;14537;47.788;11.858;2024-01-30T03:52:47;1.58;;;0.70;;
26989;SDS011;14537;47.788;11.858;2024-01-30T03:55:13;3.70;;;0.80;;
26989;SDS011;14537;47.788;11.858;2024-01-30T03:57:38;2.83;;;1.45;;
26989;SDS011;14537;47.788;11.858;2024-01-30T04:00:04;1.60;;;1.02;;
26989;SDS011;14537;47.788;11.858;2024-01-30T04:02:30;1.90;;;1.33;;
26989;SDS011;14537;47.788;11.858;2024-01-30T04:04:56;1.23;;;0.95;;
26989;SDS011;14537;47.788;11.858;2024-01-30T04:07:21;2.97;;;1.67;;
26989;SDS011;14537;47.788;11.858;2024-01-30T04:09:47;1.98;;;1.23;;
26989;SDS011;14537;47.788;11.858;2024-01-30T04:12:13;1.38;;;1.02;;
26989;SDS011;14537;47.788;11.858;2024-01-30T04:14:38;3.08;;;1.80;;
26989;SDS011;14537;47.788;11.858;2024-01-30T04:17:04;1.50;;;1.30;;
26989;SDS011;14537;47.788;11.858;2024-01-30T04:19:30;2.60;;;1.60;;
26989;SDS011;14537;47.788;11.858;2024-01-30T04:21:55;3.85;;;1.40;;
26989;SDS011;14537;47.788;11.858;2024-01-30T04:24:21;2.92;;;1.75;;
26989;SDS011;14537;47.788;11.858;2024-01-30T04:26:46;1.48;;;1.00;;
26989;SDS011;14537;47.788;11.858;2024-01-30T04:29:12;2.03;;;1.40;;
26989;SDS011;14537;47.788;11.858;2024-01-30T04:31:38;2.17;;;1.20;;
26989;SDS011;14537;47.788;11.858;2024-01-30T04:34:03;1.98;;;0.75;;
26989;SDS011;14537;47.788;11.858;2024-01-30T04:36:30;2.85;;;1.25;;
26989;SDS011;14537;47.788;11.858;2024-01-30T04:38:55;1.25;;;0.90;;
26989;SDS011;14537;47.788;11.858;2024-01-30T04:41:21;1.70;;;1.02;;
26989;SDS011;14537;47.788;11.858;2024-01-30T04:43:47;2.30;;;0.98;;
26989;SDS011;14537;47.788;11.858;2024-01-30T04:46:12;2.42;;;1.25;;
26989;SDS011;14537;47.788;11.858;2024-01-30T04:48:38;1.75;;;1.00;;
26989;SDS011;14537;47.788;11.858;2024-01-30T04:51:03;1.05;;;0.80;;
26989;SDS011;14537;47.788;11.858;2024-01-30T04:53:30;1.52;;;0.73;;
26989;SDS011;14537;47.788;11.858;2024-01-30T04:55:56;0.40;;;0.40;;
26989;SDS011;14537;47.788;11.858;2024-01-30T04:58:21;0.88;;;0.50;;
26989;SDS011;14537;47.788;11.858;2024-01-30T05:00:47;0.47;;;0.40;;
26989;SDS011;14537;47.788;11.858;2024-01-30T05:03:16;1.75;;;0.70;;
26989;SDS011;14537;47.788;11.858;2024-01-30T05:05:44;0.93;;;0.50;;
26989;SDS011;14537;47.788;11.858;2024-01-30T05:08:09;0.47;;;0.40;;
26989;SDS011;14537;47.788;11.858;2024-01-30T05:10:35;0.82;;;0.52;;
26989;SDS011;14537;47.788;11.858;2024-01-30T05:13:00;0.65;;;0.60;;
26989;SDS011;14537;47.788;11.858;2024-01-30T05:15:26;0.52;;;0.40;;
26989;SDS011;14537;47.788;11.858;2024-01-30T05:17:52;1.33;;;0.90;;
26989;SDS011;14537;47.788;11.858;2024-01-30T05:20:17;0.50;;;0.50;;
26989;SDS011;14537;47.788;11.858;2024-01-30T05:22:43;1.85;;;0.65;;
26989;SDS011;14537;47.788;11.858;2024-01-30T05:25:10;1.73;;;0.88;;
26989;SDS011;14537;47.788;11.858;2024-01-30T05:27:37;1.23;;;0.75;;
26989;SDS011;14537;47.788;11.858;2024-01-30T05:30:03;3.97;;;0.98;;
26989;SDS011;14537;47.788;11.858;2024-01-30T05:32:29;0.82;;;0.70;;
26989;SDS011;14537;47.788;11.858;2024-01-30T05:34:55;5.15;;;0.90;;
26989;SDS011;14537;47.788;11.858;2024-01-30T05:37:20;1.95;;;0.60;;
26989;SDS011;14537;47.788;11.858;2024-01-30T05:39:46;0.50;;;0.50;;
26989;SDS011;14537;47.788;11.858;2024-01-30T05:42:12;1.83;;;0.70;;
26989;SDS011;14537;47.788;11.858;2024-01-30T05:44:37;2.10;;;0.65;;
26989;SDS011;14537;47.788;11.858;2024-01-30T05:47:03;1.25;;;0.65;;
26989;SDS011;14537;47.788;11.858;2024-01-30T05:49:29;1.75;;;1.13;;
26989;SDS011;14537;47.788;11.858;2024-01-30T05:51:54;1.90;;;1.30;;
26989;SDS011;14537;47.788;11.858;2024-01-30T05:54:20;1.08;;;0.90;;
26989;SDS011;14537;47.788;11.858;2024-01-30T05:56:46;1.33;;;1.20;;
26989;SDS011;14537;47.788;11.858;2024-01-30T05:59:11;2.40;;;1.13;;
26989;SDS011;14537;47.788;11.858;2024-01-30T06:01:37;3.42;;;0.85;;
26989;SDS011;14537;47.788;11.858;2024-01-30T06:04:03;1.15;;;0.70;;
26989;SDS011;14537;47.788;11.858;2024-01-30T06:06:28;2.10;;;0.90;;
26989;SDS011;14537;47.788;11.858;2024-01-30T06:08:54;1.38;;;0.63;;
26989;SDS011;14537;47.788;11.858;2024-01-30T06:11:21;1.42;;;0.85;;
26989;SDS011;14537;47.788;11.858;2024-01-30T06:13:46;5.32;;;1.10;;
26989;SDS011;14537;47.788;11.858;2024-01-30T06:16:12;1.17;;;0.90;;
26989;SDS011;14537;47.788;11.858;2024-01-30T06:18:38;3.17;;;1.10;;
26989;SDS011;14537;47.788;11.858;2024-01-30T06:21:04;3.38;;;1.20;;
26989;SDS011;14537;47.788;11.858;2024-01-30T06:23:30;3.88;;;1.35;;
26989;SDS011;14537;47.788;11.858;2024-01-30T06:25:55;4.53;;;1.05;;
26989;SDS011;14537;47.788;11.858;2024-01-30T06:28:21;3.08;;;1.20;;
26989;SDS011;14537;47.788;11.858;2024-01-30T06:30:47;1.60;;;0.70;;
26989;SDS011;14537;47.788;11.858;2024-01-30T06:33:13;2.17;;;1.00;;
26989;SDS011;14537;47.788;11.858;2024-01-30T06:35:39;4.40;;;1.42;;
26989;SDS011;14537;47.788;11.858;2024-01-30T06:38:05;1.85;;;0.98;;
26989;SDS011;14537;47.788;11.858;2024-01-30T06:40:31;0.73;;;0.70;;
26989;SDS011;14537;47.788;11.858;2024-01-30T06:42:57;1.42;;;0.75;;
26989;SDS011;14537;47.788;11.858;2024-01-30T06:45:22;3.67;;;1.20;;
26989;SDS011;14537;47.788;11.858;2024-01-30T06:47:48;1.60;;;1.13;;
26989;SDS011;14537;47.788;11.858;2024-01-30T06:50:14;3.83;;;1.25;;
26989;SDS011;14537;47.788;11.858;2024-01-30T06:52:39;1.55;;;1.15;;
26989;SDS011;14537;47.788;11.858;2024-01-30T06:55:05;2.03;;;1.20;;
26989;SDS011;14537;47.788;11.858;2024-01-30T06:57:31;4.15;;;1.20;;
26989;SDS011;14537;47.788;11.858;2024-01-30T06:59:57;4.13;;;1.20;;
26989;SDS011;14537;47.788;11.858;2024-01-30T07:02:22;1.98;;;1.40;;
26989;SDS011;14537;47.788;11.858;2024-01-30T07:04:48;3.22;;;1.40;;
26989;SDS011;14537;47.788;11.858;2024-01-30T07:07:14;4.47;;;1.45;;
26989;SDS011;14537;47.788;11.858;2024-01-30T07:09:40;4.90;;;1.75;;
26989;SDS011;14537;47.788;11.858;2024-01-30T07:12:06;1.65;;;1.30;;
26989;SDS011;14537;47.788;11.858;2024-01-30T07:14:31;17.60;;;6.22;;
26989;SDS011;14537;47.788;11.858;2024-01-30T07:16:57;13.05;;;5.55;;
26989;SDS011;14537;47.788;11.858;2024-01-30T07:19:23;24.17;;;8.65;;
26989;SDS011;14537;47.788;11.858;2024-01-30T07:21:49;15.95;;;6.03;;
26989;SDS011;14537;47.788;11.858;2024-01-30T07:24:14;13.13;;;5.43;;
26989;SDS011;14537;47.788;11.858;2024-01-30T07:26:40;11.27;;;4.18;;
26989;SDS011;14537;47.788;11.858;2024-01-30T07:29:06;8.32;;;3.78;;
26989;SDS011;14537;47.788;11.858;2024-01-30T07:31:31;14.13;;;4.20;;
26989;SDS011;14537;47.788;11.858;2024-01-30T07:33:57;8.82;;;3.17;;
26989;SDS011;14537;47.788;11.858;2024-01-30T07:36:23;5.03;;;2.30;;
26989;SDS011;14537;47.788;11.858;2024-01-30T07:38:48;7.63;;;2.97;;
26989;SDS011;14537;47.788;11.858;2024-01-30T07:41:14;8.20;;;2.67;;
26989;SDS011;14537;47.788;11.858;2024-01-30T07:43:39;7.40;;;2.50;;
26989;SDS011;14537;47.788;11.858;2024-01-30T07:46:05;6.05;;;2.90;;
26989;SDS011;14537;47.788;11.858;2024-01-30T07:48:31;6.97;;;2.63;;
26989;SDS011;14537;47.788;11.858;2024-01-30T07:50:58;5.50;;;2.50;;
26989;SDS011;14537;47.788;11.858;2024-01-30T07:53:24;4.85;;;2.63;;
26989;SDS011;14537;47.788;11.858;2024-01-30T07:55:50;11.38;;;3.50;;
26989;SDS011;14537;47.788;11.858;2024-01-30T07:58:15;22.27;;;6.20;;
26989;SDS011;14537;47.788;11.858;2024-01-30T08:00:41;14.68;;;6.45;;
26989;SDS011;14537;47.788;11.858;2024-01-30T08:03:07;18.08;;;6.45;;
26989;SDS011;14537;47.788;11.858;2024-01-30T08:05:32;14.02;;;5.82;;
26989;SDS011;14537;47.788;11.858;2024-01-30T08:07:58;11.32;;;4.75;;
26989;SDS011;14537;47.788;11.858;2024-01-30T08:10:23;17.90;;;6.70;;
26989;SDS011;14537;47.788;11.858;2024-01-30T08:12:49;25.92;;;7.53;;
26989;SDS011;14537;47.788;11.858;2024-01-30T08:15:14;25.15;;;7.07;;
26989;SDS011;14537;47.788;11.858;2024-01-30T08:17:40;34.17;;;8.45;;
26989;SDS011;14537;47.788;11.858;2024-01-30T08:20:06;22.45;;;6.22;;
26989;SDS011;14537;47.788;11.858;2024-01-30T08:22:33;13.43;;;4.65;;
26989;SDS011;14537;47.788;11.858;2024-01-30T08:24:58;10.93;;;4.18;;
26989;SDS011;14537;47.788;11.858;2024-01-30T08:27:24;27.77;;;7.05;;
26989;SDS011;14537;47.788;11.858;2024-01-30T08:29:50;19.13;;;6.20;;
26989;SDS011;14537;47.788;11.858;2024-01-30T08:32:15;14.73;;;5.07;;
26989;SDS011;14537;47.788;11.858;2024-01-30T08:34:41;16.98;;;4.47;;
26989;SDS011;14537;47.788;11.858;2024-01-30T08:37:07;9.90;;;3.55;;
26989;SDS011;14537;47.788;11.858;2024-01-30T08:39:32;4.03;;;2.00;;
26989;SDS011;14537;47.788;11.858;2024-01-30T08:41:58;5.93;;;2.90;;
26989;SDS011;14537;47.788;11.858;2024-01-30T08:44:24;5.85;;;2.20;;
26989;SDS011;14537;47.788;11.858;2024-01-30T08:46:49;5.63;;;2.30;;
26989;SDS011;14537;47.788;11.858;2024-01-30T08:49:19;4.68;;;2.00;;
26989;SDS011;14537;47.788;11.858;2024-01-30T08:51:45;6.28;;;2.08;;
26989;SDS011;14537;47.788;11.858;2024-01-30T08:54:11;6.15;;;2.53;;
26989;SDS011;14537;47.788;11.858;2024-01-30T08:56:36;5.80;;;2.40;;
26989;SDS011;14537;47.788;11.858;2024-01-30T08:59:02;9.77;;;2.78;;
26989;SDS011;14537;47.788;11.858;2024-01-30T09:01:27;5.13;;;2.85;;
26989;SDS011;14537;47.788;11.858;2024-01-30T09:03:53;12.98;;;3.55;;
26989;SDS011;14537;47.788;11.858;2024-01-30T09:06:18;5.55;;;3.08;;
26989;SDS011;14537;47.788;11.858;2024-01-30T09:08:44;8.82;;;3.40;;
26989;SDS011;14537;47.788;11.858;2024-01-30T09:11:11;10.57;;;3.10;;
26989;SDS011;14537;47.788;11.858;2024-01-30T09:13:38;13.57;;;2.85;;
26989;SDS011;14537;47.788;11.858;2024-01-30T09:16:04;9.13;;;2.42;;
26989;SDS011;14537;47.788;11.858;2024-01-30T09:18:29;3.70;;;1.90;;
26989;SDS011;14537;47.788;11.858;2024-01-30T09:20:55;3.17;;;1.80;;
26989;SDS011;14537;47.788;11.858;2024-01-30T09:23:21;4.20;;;1.90;;
26989;SDS011;14537;47.788;11.858;2024-01-30T09:25:47;8.30;;;2.17;;
26989;SDS011;14537;47.788;11.858;2024-01-30T09:28:12;4.20;;;2.20;;
26989;SDS011;14537;47.788;11.858;2024-01-30T09:30:38;3.28;;;1.70;;
26989;SDS011;14537;47.788;11.858;2024-01-30T09:33:03;5.88;;;2.28;;
26989;SDS011;14537;47.788;11.858;2024-01-30T09:35:29;2.78;;;1.80;;
26989;SDS011;14537;47.788;11.858;2024-01-30T09:37:55;3.22;;;1.85;;
26989;SDS011;14537;47.788;11.858;2024-01-30T09:40:22;8.73;;;2.33;;
26989;SDS011;14537;47.788;11.858;2024-01-30T09:42:48;9.07;;;2.08;;
26989;SDS011;14537;47.788;11.858;2024-01-30T09:45:15;4.72;;;2.05;;
26989;SDS011;14537;47.788;11.858;2024-01-30T09:47:43;4.30;;;1.90;;
26989;SDS011;14537;47.788;11.858;2024-01-30T09:50:10;11.32;;;2.40;;
26989;SDS011;14537;47.788;11.858;2024-01-30T09:52:36;5.43;;;2.00;;
26989;SDS011;14537;47.788;11.858;2024-01-30T09:55:02;9.55;;;2.42;;
26989;SDS011;14537;47.788;11.858;2024-01-30T09:57:30;4.22;;;1.80;;
26989;SDS011;14537;47.788;11.858;2024-01-30T09:59:56;4.10;;;1.90;;
26989;SDS011;14537;47.788;11.858;2024-01-30T10:02:22;4.90;;;1.85;;
26989;SDS011;14537;47.788;11.858;2024-01-30T10:04:48;6.25;;;2.20;;
26989;SDS011;14537;47.788;11.858;2024-01-30T10:07:17;6.00;;;2.03;;
26989;SDS011;14537;47.788;11.858;2024-01-30T10:09:43;5.75;;;1.75;;
26989;SDS011;14537;47.788;11.858;2024-01-30T10:12:10;2.60;;;1.50;;
26989;SDS011;14537;47.788;11.858;2024-01-30T10:14:38;5.07;;;2.00;;
26989;SDS011;14537;47.788;11.858;2024-01-30T10:17:05;3.83;;;1.73;;
26989;SDS011;14537;47.788;11.858;2024-01-30T10:19:32;3.97;;;1.90;;
26989;SDS011;14537;47.788;11.858;2024-01-30T10:21:59;4.75;;;2.05;;
26989;SDS011;14537;47.788;11.858;2024-01-30T10:24:25;4.05;;;1.70;;
26989;SDS011;14537;47.788;11.858;2024-01-30T10:26:52;6.57;;;2.33;;
26989;SDS011;14537;47.788;11.858;2024-01-30T10:29:18;4.00;;;1.85;;
26989;SDS011;14537;47.788;11.858;2024-01-30T10:31:44;5.75;;;1.98;;
26989;SDS011;14537;47.788;11.858;2024-01-30T10:34:09;3.28;;;1.27;;
26989;SDS011;14537;47.788;11.858;2024-01-30T10:36:38;6.15;;;1.77;;
26989;SDS011;14537;47.788;11.858;2024-01-30T10:39:08;4.88;;;1.98;;
26989;SDS011;14537;47.788;11.858;2024-01-30T10:41:36;7.15;;;1.98;;
26989;SDS011;14537;47.788;11.858;2024-01-30T10:44:10;4.78;;;1.95;;
26989;SDS011;14537;47.788;11.858;2024-01-30T10:46:39;3.22;;;1.88;;
26989;SDS011;14537;47.788;11.858;2024-01-30T10:49:07;7.18;;;1.88;;
26989;SDS011;14537;47.788;11.858;2024-01-30T10:51:35;6.10;;;2.40;;
26989;SDS011;14537;47.788;11.858;2024-01-30T10:54:03;4.28;;;1.77;;
26989;SDS011;14537;47.788;11.858;2024-01-30T10:56:31;5.60;;;1.80;;
26989;SDS011;14537;47.788;11.858;2024-01-30T10:58:58;5.43;;;1.60;;
26989;SDS011;14537;47.788;11.858;2024-01-30T11:01:24;5.82;;;1.67;;
26989;SDS011;14537;47.788;11.858;2024-01-30T11:03:52;5.57;;;2.05;;
26989;SDS011;14537;47.788;11.858;2024-01-30T11:06:18;2.75;;;1.20;;
26989;SDS011;14537;47.788;11.858;2024-01-30T11:08:59;4.35;;;1.55;;
26989;SDS011;14537;47.788;11.858;2024-01-30T11:11:29;8.30;;;1.90;;
26989;SDS011;14537;47.788;11.858;2024-01-30T11:13:55;3.75;;;1.30;;
26989;SDS011;14537;47.788;11.858;2024-01-30T11:16:20;3.92;;;1.52;;
26989;SDS011;14537;47.788;11.858;2024-01-30T11:18:50;1.73;;;1.10;;
26989;SDS011;14537;47.788;11.858;2024-01-30T11:21:16;3.13;;;1.20;;
26989;SDS011;14537;47.788;11.858;2024-01-30T11:23:42;2.70;;;1.45;;
26989;SDS011;14537;47.788;11.858;2024-01-30T11:26:10;3.35;;;1.02;;
26989;SDS011;14537;47.788;11.858;2024-01-30T11:28:37;2.38;;;1.08;;
26989;SDS011;14537;47.788;11.858;2024-01-30T11:31:06;1.85;;;1.02;;
26989;SDS011;14537;47.788;11.858;2024-01-30T11:33:32;1.65;;;0.90;;
26989;SDS011;14537;47.788;11.858;2024-01-30T11:35:59;1.67;;;0.90;;
26989;SDS011;14537;47.788;11.858;2024-01-30T11:38:26;3.00;;;1.00;;
26989;SDS011;14537;47.788;11.858;2024-01-30T11:40:55;1.98;;;1.05;;
26989;SDS011;14537;47.788;11.858;2024-01-30T11:43:24;1.40;;;0.88;;
26989;SDS011;14537;47.788;11.858;2024-01-30T11:45:49;1.58;;;0.80;;
26989;SDS011;14537;47.788;11.858;2024-01-30T11:48:15;1.35;;;0.80;;
26989;SDS011;14537;47.788;11.858;2024-01-30T11:50:42;1.40;;;0.90;;
26989;SDS011;14537;47.788;11.858;2024-01-30T11:53:09;1.30;;;0.60;;
26989;SDS011;14537;47.788;11.858;2024-01-30T11:55:35;0.90;;;0.80;;
26989;SDS011;14537;47.788;11.858;2024-01-30T11:58:02;2.13;;;0.70;;
26989;SDS011;14537;47.788;11.858;2024-01-30T12:00:31;2.60;;;0.98;;
26989;SDS011;14537;47.788;11.858;2024-01-30T12:02:58;1.10;;;0.50;;
26989;SDS011;14537;47.788;11.858;2024-01-30T12:05:26;0.90;;;0.70;;
26989;SDS011;14537;47.788;11.858;2024-01-30T12:07:52;1.00;;;0.70;;
26989;SDS011;14537;47.788;11.858;2024-01-30T12:10:18;2.85;;;0.82;;
26989;SDS011;14537;47.788;11.858;2024-01-30T12:12:48;1.02;;;0.57;;
26989;SDS011;14537;47.788;11.858;2024-01-30T12:15:14;0.57;;;0.50;;
26989;SDS011;14537;47.788;11.858;2024-01-30T12:17:41;0.88;;;0.50;;
26989;SDS011;14537;47.788;11.858;2024-01-30T12:20:10;1.50;;;0.50;;
26989;SDS011;14537;47.788;11.858;2024-01-30T12:22:40;1.38;;;0.75;;
26989;SDS011;14537;47.788;11.858;2024-01-30T12:25:10;0.77;;;0.50;;
26989;SDS011;14537;47.788;11.858;2024-01-30T12:27:37;3.13;;;0.82;;
26989;SDS011;14537;47.788;11.858;2024-01-30T12:30:10;1.00;;;0.60;;
26989;SDS011;14537;47.788;11.858;2024-01-30T12:32:39;1.55;;;0.57;;
26989;SDS011;14537;47.788;11.858;2024-01-30T12:35:13;0.55;;;0.50;;
26989;SDS011;14537;47.788;11.858;2024-01-30T12:37:40;0.65;;;0.43;;
26989;SDS011;14537;47.788;11.858;2024-01-30T12:40:09;1.23;;;0.75;;
26989;SDS011;14537;47.788;11.858;2024-01-30T12:42:36;1.95;;;0.60;;
26989;SDS011;14537;47.788;11.858;2024-01-30T12:45:02;0.80;;;0.40;;
26989;SDS011;14537;47.788;11.858;2024-01-30T12:47:29;1.38;;;0.57;;
26989;SDS011;14537;47.788;11.858;2024-01-30T12:49:55;0.60;;;0.57;;
26989;SDS011;14537;47.788;11.858;2024-01-30T12:52:21;1.85;;;0.60;;
26989;SDS011;14537;47.788;11.858;2024-01-30T12:54:47;2.35;;;0.60;;
26989;SDS011;14537;47.788;11.858;2024-01-30T12:57:13;4.40;;;0.63;;
26989;SDS011;14537;47.788;11.858;2024-01-30T12:59:39;1.02;;;0.65;;
26989;SDS011;14537;47.788;11.858;2024-01-30T13:02:05;3.38;;;0.60;;
26989;SDS011;14537;47.788;11.858;2024-01-30T13:04:31;0.65;;;0.60;;
26989;SDS011;14537;47.788;11.858;2024-01-30T13:06:57;2.67;;;0.70;;
26989;SDS011;14537;47.788;11.858;2024-01-30T13:09:25;1.65;;;0.73;;
26989;SDS011;14537;47.788;11.858;2024-01-30T13:11:51;0.98;;;0.88;;
26989;SDS011;14537;47.788;11.858;2024-01-30T13:14:17;1.25;;;0.88;;
26989;SDS011;14537;47.788;11.858;2024-01-30T13:16:44;0.88;;;0.68;;
26989;SDS011;14537;47.788;11.858;2024-01-30T13:19:09;1.67;;;0.60;;
26989;SDS011;14537;47.788;11.858;2024-01-30T13:21:35;0.65;;;0.50;;
26989;SDS011;14537;47.788;11.858;2024-01-30T13:24:00;1.20;;;0.70;;
26989;SDS011;14537;47.788;11.858;2024-01-30T13:26:26;1.23;;;0.60;;
26989;SDS011;14537;47.788;11.858;2024-01-30T13:28:52;1.58;;;0.90;;
26989;SDS011;14537;47.788;11.858;2024-01-30T13:31:17;1.08;;;0.50;;
26989;SDS011;14537;47.788;11.858;2024-01-30T13:33:44;0.75;;;0.60;;
26989;SDS011;14537;47.788;11.858;2024-01-30T13:36:10;0.95;;;0.60;;
26989;SDS011;14537;47.788;11.858;2024-01-30T13:38:36;1.25;;;0.90;;
26989;SDS011;14537;47.788;11.858;2024-01-30T13:41:02;5.65;;;2.38;;
26989;SDS011;14537;47.788;11.858;2024-01-30T13:43:28;2.17;;;1.00;;
26989;SDS011;14537;47.788;11.858;2024-01-30T13:45:54;1.73;;;0.77;;
26989;SDS011;14537;47.788;11.858;2024-01-30T13:48:20;2.60;;;1.30;;
26989;SDS011;14537;47.788;11.858;2024-01-30T13:50:46;1.48;;;0.70;;
26989;SDS011;14537;47.788;11.858;2024-01-30T13:53:12;1.00;;;0.85;;
26989;SDS011;14537;47.788;11.858;2024-01-30T13:55:38;2.33;;;0.77;;
26989;SDS011;14537;47.788;11.858;2024-01-30T13:58:04;0.60;;;0.60;;
26989;SDS011;14537;47.788;11.858;2024-01-30T14:00:31;1.05;;;0.60;;
26989;SDS011;14537;47.788;11.858;2024-01-30T14:02:56;1.73;;;0.70;;
26989;SDS011;14537;47.788;11.858;2024-01-30T14:05:23;1.52;;;0.60;;
26989;SDS011;14537;47.788;11.858;2024-01-30T14:07:50;1.48;;;0.70;;
26989;SDS011;14537;47.788;11.858;2024-01-30T14:10:17;0.95;;;0.60;;
26989;SDS011;14537;47.788;11.858;2024-01-30T14:12:42;1.38;;;0.68;;
26989;SDS011;14537;47.788;11.858;2024-01-30T14:15:09;5.03;;;1.02;;
26989;SDS011;14537;47.788;11.858;2024-01-30T14:17:35;2.90;;;0.90;;
26989;SDS011;14537;47.788;11.858;2024-01-30T14:20:02;0.93;;;0.60;;
26989;SDS011;14537;47.788;11.858;2024-01-30T14:22:29;1.08;;;0.77;;
26989;SDS011;14537;47.788;11.858;2024-01-30T14:24:55;0.68;;;0.60;;
26989;SDS011;14537;47.788;11.858;2024-01-30T14:27:21;2.05;;;0.90;;